Historyczne dane pomiarowe

Dodano dane terminowe – wersja testowa.

Dane z okresu 1951-2019

Wersja bazy: 1.34 [2019-03-16, lista zmian], aktualizacja planowana na 2019-04-15

Dane meteo z obszaru Polski uzyskane na podstawie danych udostępnionych przez Instytut Meteorologii i Gospodarki Wodnej – Państwowy Instytut Badawczy.

 

Wybierz Datę:    

       

TemperaturaWilgotnośćWiatrCiśnienieOpadyŚniegCzas trwania zjawisk
 Stacja t tx tn tng RH VA  wxwx mslp ppp RRR   cm mm wxwxwxwxwxwxwx
1964-02-15-15.2 -6.4-18.6- 71.3- 2.0 0.3---- 0.0-- 26---------
1964-02-16-15.0 -9.6-23.3- 71.8- 2.7 3.0---- 0.0-- 26---------
1964-02-17 -4.7 -2.3-13.6- 80.8- 7.7 6.7---- 0.4-- 26---------
1964-02-18 1.5 3.7 -3.8- 91.0- 8.0 5.3---- 9.3-- 26---------
1964-02-19 -9.6 -0.4-10.4- 80.5- 8.0 4.7---- 0.0-- 20---------
1964-02-20-15.1-10.4-20.9- 74.3- 0.3 0.7---- 0.0-- 20---------
1964-02-21-14.0 -6.7-22.2- 69.3- 0.0 0.7---- 0.0-- 20---------
1964-02-22-10.1 -3.0-16.3- 78.3- 5.3 1.7---- 0.0-- 20---------
1964-02-23 -6.9 -2.7-12.9- 79.3- 4.7 5.3---- 0.0-- 20---------
1964-02-24 -9.1 -3.0-13.0- 71.8- 3.0 3.7---- 0.0-- 20---------
1964-02-25 -9.0 -2.9-15.4- 79.0- 0.0 4.7---- 0.0-- 20---------
1964-02-26 -3.2 -0.7-10.1- 83.3- 7.7 7.0---- 0.0-- 20---------
1964-02-27 -2.8 -1.9 -4.3- 86.8- 8.0 8.3---- 0.0-- 20---------
1964-02-28 -3.2 -2.2 -4.4- 84.3- 8.0 4.7---- 0.0-- 20---------
1964-02-29 -3.1 -2.0 -3.9- 83.3- 8.0 3.0---- 0.0-- 20---------
1964-03-01 -4.4 -3.2 -5.4- 81.5- 8.0 3.3---- 0.2-- 19---------
1964-03-02 -5.9 -2.3-10.0- 80.0- 7.0 6.0---- 0.1-- 18---------
1964-03-03 -3.3 -2.2 -5.7- 85.5- 8.0 6.0---- 0.5-- 19---------
1964-03-04 -5.4 -2.1 -7.7- 83.0- 8.0 2.3---- 0.2-- 21---------
1964-03-05 -5.2 -4.0 -7.4- 73.5- 6.7 3.7---- 0.4-- 21---------
1964-03-06-11.9 -5.2-13.1- 72.0- 0.0 6.0---- 0.0-- 22---------
1964-03-07-13.7-10.5-19.4- 70.0- 3.0 8.7---- 0.3-- 22---------
1964-03-08-12.8 -8.3-14.3- 68.3- 2.7 4.0---- 0.0-- 23---------
1964-03-09 -5.8 2.2-17.9- 74.5- 5.3 1.3---- 0.0-- 23---------
1964-03-10 -2.0 2.7 -5.5- 74.3- 2.3 3.3---- 0.0-- 20---------
1964-03-11 -1.7 0.5-10.2- 85.3- 6.7 1.3---- 0.0-- 16---------
1964-03-12 -1.1 0.7 -5.7- 84.0- 7.7 2.0---- 0.0-- 14---------
1964-03-13 -3.0 0.6 -4.8- 71.8- 2.3 5.0---- 0.0-- 13---------
1964-03-14 -5.6 -2.3 -7.9- 73.0- 3.3 8.0---- 0.0-- 10---------
1964-03-15 -8.8 -5.6-12.3- 72.8- 5.0 7.0---- 0.0-- 9---------
87.0 ms

 

Źródłem pochodzenia danych jest Instytut Meteorologii i Gospodarki Wodnej – Państwowy Instytut Badawczy. Dane Instytutu Meteorologii i Gospodarki Wodnej – Państwowego Instytutu Badawczego zostały przetworzone.

Dane źródłowe można odnaleźć na stronie https://dane.imgw.pl